createdAt,value
2017-08-03T00:01:03.787Z,10.17
2017-08-03T00:03:31.663Z,11.73
2017-08-03T00:06:03.351Z,11.10
2017-08-03T00:08:30.862Z,9.67
2017-08-03T00:10:58.385Z,9.60
2017-08-03T00:13:26.036Z,10.70
2017-08-03T00:15:53.548Z,10.57
2017-08-03T00:18:21.060Z,11.50
2017-08-03T00:20:56.390Z,11.23
2017-08-03T00:23:23.902Z,10.50
2017-08-03T00:25:55.356Z,9.83
2017-08-03T00:28:22.895Z,10.40
2017-08-03T00:30:50.431Z,11.60
2017-08-03T00:33:18.270Z,9.00
2017-08-03T00:35:48.812Z,9.40
2017-08-03T00:38:16.323Z,10.13
2017-08-03T00:40:43.824Z,8.50
2017-08-03T00:43:11.636Z,10.67
2017-08-03T00:45:39.367Z,11.17
2017-08-03T00:48:06.867Z,10.17
2017-08-03T00:50:42.161Z,11.97
2017-08-03T00:53:09.736Z,9.67
2017-08-03T00:55:37.645Z,7.07
2017-08-03T00:58:05.453Z,8.20
2017-08-03T01:00:33.003Z,8.60
2017-08-03T01:03:00.512Z,11.33
2017-08-03T01:05:28.114Z,9.45
2017-08-03T01:07:55.699Z,10.25
2017-08-03T01:10:23.275Z,10.77
2017-08-03T01:12:50.787Z,11.27
2017-08-03T01:15:18.359Z,9.10
2017-08-03T01:17:45.934Z,9.70
2017-08-03T01:20:13.478Z,8.87
2017-08-03T01:22:49.551Z,11.77
2017-08-03T01:25:17.208Z,10.02
2017-08-03T01:27:44.732Z,9.67
2017-08-03T01:30:15.588Z,10.47
2017-08-03T01:32:43.104Z,11.80
2017-08-03T01:35:10.635Z,10.13
2017-08-03T01:37:41.988Z,10.30
2017-08-03T01:40:10.056Z,9.93
2017-08-03T01:42:37.605Z,12.25
2017-08-03T01:45:05.108Z,13.07
2017-08-03T01:47:32.664Z,11.63
2017-08-03T01:50:00.283Z,11.00
2017-08-03T01:52:30.913Z,13.50
2017-08-03T01:54:58.435Z,12.47
2017-08-03T01:57:25.951Z,11.07
2017-08-03T01:59:53.690Z,8.13
2017-08-03T02:02:21.511Z,9.20
2017-08-03T02:04:49.787Z,9.27
2017-08-03T02:07:25.280Z,10.77
2017-08-03T02:09:52.809Z,12.07
2017-08-03T02:12:20.383Z,12.00
2017-08-03T02:14:47.935Z,8.80
2017-08-03T02:17:15.695Z,9.10
2017-08-03T02:19:43.509Z,12.47
2017-08-03T02:22:14.017Z,10.07
2017-08-03T02:24:44.719Z,12.80
2017-08-03T02:27:12.227Z,8.60
2017-08-03T02:29:39.750Z,11.68
2017-08-03T02:32:07.498Z,11.03
2017-08-03T02:34:35.309Z,12.65
2017-08-03T02:37:02.829Z,13.30
2017-08-03T02:39:30.397Z,13.20
2017-08-03T02:41:58.077Z,15.27
2017-08-03T02:44:25.583Z,13.60
2017-08-03T02:46:53.131Z,12.07
2017-08-03T02:49:20.640Z,13.45
2017-08-03T02:51:51.865Z,15.23
2017-08-03T02:54:23.303Z,15.40
2017-08-03T02:56:51.587Z,14.65
2017-08-03T02:59:22.762Z,15.95
2017-08-03T03:01:50.296Z,15.65
2017-08-03T03:04:17.944Z,15.25
2017-08-03T03:06:48.937Z,17.70
2017-08-03T03:09:16.447Z,16.45
2017-08-03T03:11:43.967Z,16.45
2017-08-03T03:14:11.523Z,15.55
2017-08-03T03:16:39.037Z,15.73
2017-08-03T03:19:06.733Z,14.70
2017-08-03T03:21:37.435Z,16.57
2017-08-03T03:24:04.983Z,16.20
2017-08-03T03:26:36.232Z,16.57
2017-08-03T03:29:03.926Z,17.05
2017-08-03T03:31:31.472Z,16.20
2017-08-03T03:33:59.137Z,14.93
2017-08-03T03:36:26.651Z,14.43
2017-08-03T03:38:54.943Z,15.80
2017-08-03T03:41:26.115Z,15.90
2017-08-03T03:43:53.674Z,14.95
2017-08-03T03:46:21.336Z,13.80
2017-08-03T03:48:48.903Z,14.90
2017-08-03T03:51:16.408Z,15.00
2017-08-03T03:53:43.920Z,17.03
2017-08-03T03:56:14.694Z,15.10
2017-08-03T03:58:49.700Z,15.17
2017-08-03T04:01:17.257Z,16.47
2017-08-03T04:03:44.810Z,19.50
2017-08-03T04:06:12.351Z,17.40
2017-08-03T04:08:39.868Z,16.50
2017-08-03T04:11:10.875Z,16.53
2017-08-03T04:13:38.429Z,17.70
2017-08-03T04:16:05.958Z,18.43
2017-08-03T04:18:33.653Z,18.17
2017-08-03T04:21:01.414Z,17.17
2017-08-03T04:23:32.889Z,20.03
2017-08-03T04:26:00.630Z,19.00
2017-08-03T04:28:28.387Z,17.70
2017-08-03T04:30:55.940Z,17.53
2017-08-03T04:33:23.716Z,17.50
2017-08-03T04:35:51.663Z,17.50
2017-08-03T04:38:19.203Z,16.30
2017-08-03T04:40:55.196Z,16.70
2017-08-03T04:43:25.733Z,17.70
2017-08-03T04:45:53.243Z,17.03
2017-08-03T04:48:21.571Z,17.13
2017-08-03T04:50:49.096Z,16.13
2017-08-03T04:53:19.859Z,15.87
2017-08-03T04:55:52.071Z,15.27
2017-08-03T04:58:19.595Z,16.23
2017-08-03T05:00:47.146Z,15.27
2017-08-03T05:03:14.653Z,15.87
2017-08-03T05:05:43.309Z,15.53
2017-08-03T05:08:11.354Z,17.57
2017-08-03T05:10:38.867Z,14.93
2017-08-03T05:13:07.496Z,16.23
2017-08-03T05:15:35.007Z,16.23
2017-08-03T05:18:02.565Z,15.40
2017-08-03T05:20:30.088Z,17.13
2017-08-03T05:22:57.608Z,15.33
2017-08-03T05:25:29.416Z,14.80
2017-08-03T05:27:56.992Z,17.53
2017-08-03T05:30:24.530Z,16.37
2017-08-03T05:32:52.044Z,17.27
2017-08-03T05:35:19.581Z,19.17
2017-08-03T05:37:47.877Z,20.57
2017-08-03T05:40:15.475Z,17.90
2017-08-03T05:42:43.125Z,16.20
2017-08-03T05:45:10.693Z,17.70
2017-08-03T05:47:38.364Z,18.00
2017-08-03T05:50:05.956Z,18.57
2017-08-03T05:52:33.675Z,18.65
2017-08-03T05:55:01.187Z,19.27
2017-08-03T05:57:33.094Z,18.53
2017-08-03T06:00:00.631Z,16.67
2017-08-03T06:02:28.292Z,17.30
2017-08-03T06:04:56.074Z,19.03
2017-08-03T06:07:24.139Z,18.63
2017-08-03T06:09:56.213Z,18.83
2017-08-03T06:12:23.728Z,18.60
2017-08-03T06:14:52.052Z,18.80
2017-08-03T06:17:19.810Z,20.30
2017-08-03T06:19:47.322Z,26.33
2017-08-03T06:22:16.511Z,20.23
2017-08-03T06:24:48.152Z,22.90
2017-08-03T06:27:25.655Z,19.47
2017-08-03T06:29:53.485Z,19.53
2017-08-03T06:32:21.016Z,19.40
2017-08-03T06:34:48.615Z,19.57
2017-08-03T06:37:16.130Z,18.93
2017-08-03T06:39:44.406Z,20.13
2017-08-03T06:42:15.567Z,17.27
2017-08-03T06:44:43.141Z,17.63
2017-08-03T06:47:10.651Z,17.20
2017-08-03T06:49:38.260Z,16.07
2017-08-03T06:52:06.031Z,16.53
2017-08-03T06:54:33.528Z,16.57
2017-08-03T06:57:04.728Z,15.47
2017-08-03T06:59:35.850Z,15.00
2017-08-03T07:02:03.440Z,16.30
2017-08-03T07:04:31.003Z,16.03
2017-08-03T07:06:58.508Z,16.50
2017-08-03T07:09:26.799Z,18.60
2017-08-03T07:11:54.351Z,20.77
2017-08-03T07:14:22.632Z,18.73
2017-08-03T07:16:50.184Z,19.20
2017-08-03T07:19:18.478Z,20.20
2017-08-03T07:21:46.031Z,21.47
2017-08-03T07:24:13.857Z,19.63
2017-08-03T07:26:44.243Z,20.83
2017-08-03T07:29:12.000Z,18.70
2017-08-03T07:31:43.871Z,18.70
2017-08-03T07:34:11.376Z,19.80
2017-08-03T07:36:42.081Z,18.70
2017-08-03T07:39:09.748Z,18.53
2017-08-03T07:41:40.684Z,19.90
2017-08-03T07:44:08.187Z,19.90
2017-08-03T07:46:36.808Z,20.03
2017-08-03T07:49:04.343Z,20.87
2017-08-03T07:51:31.884Z,19.70
2017-08-03T07:53:59.791Z,20.20
2017-08-03T07:56:27.469Z,22.43
2017-08-03T07:58:54.979Z,21.47
2017-08-03T08:01:22.537Z,21.87
2017-08-03T08:03:50.220Z,25.47
2017-08-03T08:06:17.945Z,23.97
2017-08-03T08:08:45.487Z,24.07
2017-08-03T08:11:13.013Z,24.50
2017-08-03T08:13:53.012Z,23.60
2017-08-03T08:16:20.967Z,25.57
2017-08-03T08:18:53.094Z,25.30
2017-08-03T08:21:20.627Z,23.30
2017-08-03T08:23:48.126Z,24.73
2017-08-03T08:26:15.773Z,24.50
2017-08-03T08:28:43.307Z,24.40
2017-08-03T08:31:14.991Z,24.50
2017-08-03T08:33:42.503Z,24.97
2017-08-03T08:36:10.827Z,23.73
2017-08-03T08:38:38.559Z,26.57
2017-08-03T08:41:06.397Z,26.03
2017-08-03T08:43:37.860Z,23.40
2017-08-03T08:46:05.401Z,24.33
2017-08-03T08:48:32.942Z,24.97
2017-08-03T08:51:00.464Z,23.17
2017-08-03T08:53:28.028Z,24.00
2017-08-03T08:55:55.568Z,23.03
2017-08-03T08:58:23.455Z,25.50
2017-08-03T09:00:51.084Z,24.00
2017-08-03T09:03:18.665Z,24.13
2017-08-03T09:05:46.224Z,25.50
2017-08-03T09:08:13.908Z,25.63
2017-08-03T09:10:41.663Z,23.80
2017-08-03T09:13:09.174Z,23.10
2017-08-03T09:15:41.063Z,22.97
2017-08-03T09:18:12.282Z,21.97
2017-08-03T09:20:43.792Z,24.90
2017-08-03T09:23:11.296Z,21.50
2017-08-03T09:25:38.816Z,23.63
2017-08-03T09:28:09.219Z,25.10
2017-08-03T09:30:36.741Z,25.97
2017-08-03T09:33:05.072Z,24.50
2017-08-03T09:35:32.574Z,20.60
2017-08-03T09:38:00.122Z,20.67
2017-08-03T09:40:27.666Z,22.40
2017-08-03T09:42:55.172Z,23.03
2017-08-03T09:45:26.983Z,23.47
2017-08-03T09:47:54.509Z,24.20
2017-08-03T09:50:22.106Z,22.37
2017-08-03T09:52:49.618Z,21.93
2017-08-03T09:55:17.125Z,21.70
2017-08-03T09:57:45.580Z,22.07
2017-08-03T10:00:13.237Z,22.20
2017-08-03T10:02:41.006Z,24.40
2017-08-03T10:05:08.551Z,21.70
2017-08-03T10:07:36.067Z,24.70
2017-08-03T10:10:03.596Z,23.07
2017-08-03T10:12:31.112Z,23.60
2017-08-03T10:15:09.339Z,22.93
2017-08-03T10:17:44.460Z,25.90
2017-08-03T10:20:11.984Z,26.37
2017-08-03T10:22:39.527Z,23.73
2017-08-03T10:25:07.155Z,23.03
2017-08-03T10:27:34.916Z,24.03
2017-08-03T10:30:02.711Z,25.80
2017-08-03T10:32:30.219Z,25.33
2017-08-03T10:34:58.637Z,23.30
2017-08-03T10:37:26.198Z,22.53
2017-08-03T10:39:53.704Z,21.40
2017-08-03T10:42:21.208Z,21.23
2017-08-03T10:44:52.647Z,20.30
2017-08-03T10:47:20.168Z,18.67
2017-08-03T10:49:48.811Z,18.57
2017-08-03T10:52:16.489Z,18.97
2017-08-03T10:54:43.990Z,16.57
2017-08-03T10:57:11.537Z,19.07
2017-08-03T10:59:40.099Z,16.07
2017-08-03T11:02:07.677Z,16.73
2017-08-03T11:04:35.490Z,18.10
2017-08-03T11:07:02.997Z,18.07
2017-08-03T11:09:30.551Z,15.70
2017-08-03T11:11:58.062Z,17.13
2017-08-03T11:14:25.572Z,16.80
2017-08-03T11:17:04.680Z,15.30
2017-08-03T11:19:36.124Z,17.37
2017-08-03T11:22:03.631Z,16.67
2017-08-03T11:24:32.045Z,17.13
2017-08-03T11:26:59.580Z,17.70
2017-08-03T11:29:27.082Z,17.50
2017-08-03T11:31:54.615Z,15.70
2017-08-03T11:34:22.152Z,16.27
2017-08-03T11:36:49.652Z,15.90
2017-08-03T11:39:17.251Z,16.23
2017-08-03T11:41:44.751Z,15.87
2017-08-03T11:44:12.811Z,14.53
2017-08-03T11:46:40.323Z,14.00
2017-08-03T11:49:08.036Z,13.57
2017-08-03T11:51:35.602Z,15.07
2017-08-03T11:54:03.514Z,12.43
2017-08-03T11:56:31.022Z,12.90
2017-08-03T11:58:58.588Z,12.13
2017-08-03T12:01:26.107Z,11.47
2017-08-03T12:03:53.672Z,11.90
2017-08-03T12:06:21.235Z,11.90
2017-08-03T12:08:49.514Z,13.83
2017-08-03T12:11:17.066Z,12.97
2017-08-03T12:13:45.327Z,11.23
2017-08-03T12:16:12.940Z,13.10
2017-08-03T12:18:44.589Z,13.03
2017-08-03T12:21:20.645Z,10.90
2017-08-03T12:23:48.228Z,10.90
2017-08-03T12:26:15.798Z,12.27
2017-08-03T12:28:43.304Z,11.87
2017-08-03T12:31:10.802Z,12.20
2017-08-03T12:33:42.847Z,9.97
2017-08-03T12:36:10.391Z,11.97
2017-08-03T12:38:37.891Z,10.90
2017-08-03T12:41:09.837Z,10.17
2017-08-03T12:43:37.340Z,10.10
2017-08-03T12:46:04.891Z,11.23
2017-08-03T12:48:32.452Z,10.83
2017-08-03T12:51:00.576Z,10.40
2017-08-03T12:53:28.076Z,10.90
2017-08-03T12:55:56.045Z,11.10
2017-08-03T12:58:23.579Z,10.67
2017-08-03T13:00:51.108Z,13.57
2017-08-03T13:03:22.155Z,11.23
2017-08-03T13:05:49.667Z,10.23
2017-08-03T13:08:17.212Z,11.10
2017-08-03T13:10:44.788Z,10.17
2017-08-03T13:13:12.284Z,11.50
2017-08-03T13:15:39.828Z,10.30
2017-08-03T13:18:08.104Z,10.40
2017-08-03T13:20:38.975Z,10.13
2017-08-03T13:23:06.475Z,10.50
2017-08-03T13:25:38.494Z,11.20
2017-08-03T13:28:06.016Z,10.13
2017-08-03T13:30:34.360Z,10.60
2017-08-03T13:33:15.924Z,9.50
2017-08-03T13:35:43.492Z,8.60
2017-08-03T13:38:11.004Z,9.10
2017-08-03T13:40:38.503Z,9.33
2017-08-03T13:43:06.044Z,9.77
2017-08-03T13:45:33.779Z,9.83
2017-08-03T13:48:01.579Z,9.20
2017-08-03T13:50:29.111Z,10.17
2017-08-03T13:53:01.203Z,9.23
2017-08-03T13:55:28.804Z,10.23
2017-08-03T13:57:56.734Z,8.37
2017-08-03T14:00:24.246Z,10.40
2017-08-03T14:02:51.771Z,8.53
2017-08-03T14:05:22.495Z,8.57
2017-08-03T14:07:50.004Z,7.30
2017-08-03T14:10:17.565Z,7.50
2017-08-03T14:12:45.246Z,7.60
2017-08-03T14:15:12.821Z,7.73
2017-08-03T14:17:44.278Z,8.50
2017-08-03T14:20:11.800Z,8.77
2017-08-03T14:22:40.389Z,7.40
2017-08-03T14:25:07.897Z,8.10
2017-08-03T14:27:35.401Z,8.17
2017-08-03T14:30:03.140Z,6.77
2017-08-03T14:32:30.640Z,7.60
2017-08-03T14:34:58.144Z,8.33
2017-08-03T14:37:28.844Z,8.43
2017-08-03T14:39:56.407Z,8.50
2017-08-03T14:42:24.092Z,7.40
2017-08-03T14:44:51.624Z,9.77
2017-08-03T14:47:19.199Z,7.40
2017-08-03T14:49:46.719Z,7.87
2017-08-03T14:52:14.215Z,8.20
2017-08-03T14:54:44.780Z,7.47
2017-08-03T14:57:12.290Z,7.13
2017-08-03T14:59:39.830Z,7.50
2017-08-03T15:02:07.340Z,7.23
2017-08-03T15:04:34.835Z,8.10
2017-08-03T15:07:02.644Z,7.80
2017-08-03T15:09:30.140Z,7.33
2017-08-03T15:11:58.880Z,7.07
2017-08-03T15:14:26.391Z,8.40
2017-08-03T15:16:54.879Z,7.53
2017-08-03T15:19:22.384Z,6.77
2017-08-03T15:21:49.923Z,10.53
2017-08-03T15:24:17.459Z,8.13
2017-08-03T15:26:45.155Z,8.63
2017-08-03T15:29:12.816Z,6.83
2017-08-03T15:31:40.343Z,7.93
2017-08-03T15:34:08.635Z,8.67
2017-08-03T15:36:40.024Z,7.13
2017-08-03T15:39:07.577Z,8.30
2017-08-03T15:41:35.327Z,6.90
2017-08-03T15:44:03.951Z,7.57
2017-08-03T15:46:31.465Z,8.40
2017-08-03T15:49:01.995Z,9.70
2017-08-03T15:51:29.505Z,8.07
2017-08-03T15:54:01.238Z,7.27
2017-08-03T15:56:28.953Z,9.23
2017-08-03T15:58:56.446Z,8.97
2017-08-03T16:01:24.192Z,9.40
2017-08-03T16:03:51.756Z,9.27
2017-08-03T16:06:19.283Z,7.53
2017-08-03T16:08:51.186Z,10.87
2017-08-03T16:11:18.748Z,10.63
2017-08-03T16:13:46.276Z,9.10
2017-08-03T16:16:13.858Z,8.80
2017-08-03T16:18:41.424Z,10.57
2017-08-03T16:21:08.931Z,10.57
2017-08-03T16:23:36.819Z,9.97
2017-08-03T16:26:04.327Z,8.67
2017-08-03T16:28:31.827Z,8.80
2017-08-03T16:30:59.389Z,10.27
2017-08-03T16:33:26.919Z,9.77
2017-08-03T16:35:54.410Z,9.23
2017-08-03T16:38:24.961Z,10.93
2017-08-03T16:40:52.982Z,10.27
2017-08-03T16:43:20.475Z,9.97
2017-08-03T16:45:48.867Z,11.70
2017-08-03T16:48:16.377Z,9.13
2017-08-03T16:50:47.774Z,10.47
2017-08-03T16:53:19.322Z,10.90
2017-08-03T16:55:46.923Z,9.60
2017-08-03T16:58:14.458Z,9.40
2017-08-03T17:00:41.951Z,9.23
2017-08-03T17:03:09.498Z,9.00
2017-08-03T17:05:37.007Z,9.60
2017-08-03T17:08:04.599Z,10.17
2017-08-03T17:10:33.163Z,10.07
2017-08-03T17:13:00.704Z,9.00
2017-08-03T17:15:28.520Z,10.80
2017-08-03T17:17:56.026Z,9.60
2017-08-03T17:20:27.252Z,10.00
2017-08-03T17:22:54.772Z,10.60
2017-08-03T17:25:25.970Z,9.30
2017-08-03T17:27:53.492Z,11.00
2017-08-03T17:30:21.040Z,12.90
2017-08-03T17:32:48.599Z,8.83
2017-08-03T17:35:16.099Z,10.27
2017-08-03T17:37:46.916Z,10.70
2017-08-03T17:40:14.479Z,10.57
2017-08-03T17:42:42.792Z,9.40
2017-08-03T17:45:10.305Z,11.40
2017-08-03T17:47:38.283Z,11.20
2017-08-03T17:50:05.902Z,11.60
2017-08-03T17:52:33.437Z,11.10
2017-08-03T17:55:01.303Z,11.80
2017-08-03T17:57:28.813Z,10.87
2017-08-03T17:59:56.357Z,11.40
2017-08-03T18:02:23.997Z,11.80
2017-08-03T18:04:51.512Z,10.63
2017-08-03T18:07:19.964Z,11.80
2017-08-03T18:09:50.657Z,12.37
2017-08-03T18:12:18.167Z,12.90
2017-08-03T18:14:45.979Z,12.37
2017-08-03T18:17:13.625Z,14.90
2017-08-03T18:19:41.171Z,15.73
2017-08-03T18:22:12.595Z,12.10
2017-08-03T18:24:40.100Z,12.10
2017-08-03T18:27:07.780Z,10.50
2017-08-03T18:29:35.549Z,11.70
2017-08-03T18:32:03.168Z,11.60
2017-08-03T18:34:30.818Z,11.00
2017-08-03T18:36:59.087Z,11.60
2017-08-03T18:39:30.449Z,11.80
2017-08-03T18:41:58.050Z,10.77
2017-08-03T18:44:25.544Z,10.13
2017-08-03T18:46:53.087Z,9.73
2017-08-03T18:49:20.595Z,10.67
2017-08-03T18:51:52.180Z,9.80
2017-08-03T18:54:19.688Z,10.80
2017-08-03T18:56:47.314Z,11.83
2017-08-03T18:59:14.859Z,13.57
2017-08-03T19:01:42.398Z,11.40
2017-08-03T19:04:09.949Z,11.37
2017-08-03T19:06:37.555Z,13.90
2017-08-03T19:09:05.137Z,16.43
2017-08-03T19:11:32.780Z,13.07
2017-08-03T19:14:00.284Z,12.80
2017-08-03T19:16:28.581Z,12.80
2017-08-03T19:18:56.706Z,12.57
2017-08-03T19:21:24.248Z,11.97
2017-08-03T19:23:52.162Z,9.47
2017-08-03T19:26:19.790Z,11.30
2017-08-03T19:28:47.656Z,12.20
2017-08-03T19:31:15.220Z,12.10
2017-08-03T19:33:42.861Z,10.10
2017-08-03T19:36:10.473Z,11.77
2017-08-03T19:38:38.064Z,10.97
2017-08-03T19:41:05.576Z,10.43
2017-08-03T19:43:33.168Z,10.90
2017-08-03T19:46:00.716Z,10.03
2017-08-03T19:48:28.232Z,11.63
2017-08-03T19:50:55.762Z,10.60
2017-08-03T19:53:23.255Z,11.40
2017-08-03T19:55:53.740Z,11.27
2017-08-03T19:58:21.289Z,11.20
2017-08-03T20:00:48.888Z,9.80
2017-08-03T20:03:16.447Z,11.97
2017-08-03T20:05:44.184Z,10.90
2017-08-03T20:08:31.315Z,10.27
2017-08-03T20:10:59.332Z,11.30
2017-08-03T20:13:26.873Z,9.30
2017-08-03T20:15:54.409Z,10.97
2017-08-03T20:18:22.050Z,11.37
2017-08-03T20:20:49.626Z,10.53
2017-08-03T20:23:21.001Z,10.67
2017-08-03T20:25:48.517Z,10.70
2017-08-03T20:28:16.194Z,10.33
2017-08-03T20:30:43.739Z,9.97
2017-08-03T20:33:11.275Z,11.90
2017-08-03T20:35:38.867Z,11.07
2017-08-03T20:38:06.627Z,10.87
2017-08-03T20:40:34.130Z,10.30
2017-08-03T20:43:01.656Z,11.97
2017-08-03T20:45:29.298Z,10.80
2017-08-03T20:47:57.168Z,10.23
2017-08-03T20:50:24.824Z,10.50
2017-08-03T20:52:52.599Z,12.90
2017-08-03T20:55:20.112Z,11.70
2017-08-03T20:57:48.395Z,12.43
2017-08-03T21:00:15.951Z,10.63
2017-08-03T21:02:44.274Z,12.90
2017-08-03T21:05:11.821Z,11.20
2017-08-03T21:07:39.348Z,11.73
2017-08-03T21:10:11.039Z,11.77
2017-08-03T21:12:38.543Z,11.17
2017-08-03T21:15:06.267Z,12.50
2017-08-03T21:17:33.795Z,11.70
2017-08-03T21:20:01.485Z,12.90
2017-08-03T21:22:29.046Z,10.83
2017-08-03T21:24:56.547Z,11.77
2017-08-03T21:27:27.027Z,12.17
2017-08-03T21:29:54.667Z,11.40
2017-08-03T21:32:22.208Z,12.27
2017-08-03T21:34:49.769Z,10.57
2017-08-03T21:37:17.276Z,11.10
2017-08-03T21:39:44.784Z,13.10
2017-08-03T21:42:13.178Z,11.03
2017-08-03T21:44:40.743Z,11.03
2017-08-03T21:47:08.307Z,10.40
2017-08-03T21:49:35.825Z,11.97
2017-08-03T21:52:03.375Z,11.30
2017-08-03T21:54:30.898Z,10.47
2017-08-03T21:56:58.494Z,11.00
2017-08-03T21:59:26.807Z,10.67
2017-08-03T22:01:54.359Z,10.03
2017-08-03T22:04:22.970Z,11.97
2017-08-03T22:06:50.541Z,10.27
2017-08-03T22:09:18.199Z,10.70
2017-08-03T22:11:45.704Z,12.97
2017-08-03T22:14:13.301Z,11.33
2017-08-03T22:16:40.834Z,10.90
2017-08-03T22:19:08.340Z,11.73
2017-08-03T22:21:36.072Z,10.30
2017-08-03T22:24:03.787Z,12.10
2017-08-03T22:26:35.001Z,10.90
2017-08-03T22:29:02.507Z,11.03
2017-08-03T22:31:30.018Z,12.07
2017-08-03T22:33:57.564Z,15.30
2017-08-03T22:36:25.087Z,12.93
2017-08-03T22:38:52.867Z,11.37
2017-08-03T22:41:20.380Z,12.07
2017-08-03T22:43:47.906Z,12.00
2017-08-03T22:46:15.733Z,12.80
2017-08-03T22:48:43.654Z,10.60
2017-08-03T22:51:11.175Z,10.17
2017-08-03T22:53:39.465Z,12.27
2017-08-03T22:56:10.988Z,10.90
2017-08-03T22:58:38.496Z,11.20
2017-08-03T23:01:06.437Z,10.23
2017-08-03T23:03:33.968Z,11.97
2017-08-03T23:06:01.794Z,12.43
2017-08-03T23:08:29.333Z,11.73
2017-08-03T23:10:56.915Z,10.87
2017-08-03T23:13:28.963Z,10.40
2017-08-03T23:15:56.529Z,11.33
2017-08-03T23:18:24.159Z,11.70
2017-08-03T23:20:51.678Z,11.30
2017-08-03T23:23:19.675Z,9.77
2017-08-03T23:25:47.224Z,10.00
2017-08-03T23:28:14.732Z,10.07
2017-08-03T23:30:42.315Z,10.67
2017-08-03T23:33:09.839Z,10.23
2017-08-03T23:35:37.339Z,10.00
2017-08-03T23:38:04.863Z,11.20
2017-08-03T23:40:32.756Z,9.90
2017-08-03T23:43:11.967Z,10.03
2017-08-03T23:45:39.481Z,10.40
2017-08-03T23:48:07.015Z,10.27
2017-08-03T23:50:35.519Z,8.50
2017-08-03T23:53:03.087Z,8.70
2017-08-03T23:55:31.377Z,9.57
2017-08-03T23:57:58.899Z,9.67
